sensor_id;sensor_type;location;lat;lon;timestamp;temperature;humidity
60495;DHT22;46342;49.046;11.920;2024-01-30T00:01:15;2.90;57.90
60495;DHT22;46342;49.046;11.920;2024-01-30T00:03:40;2.90;58.00
60495;DHT22;46342;49.046;11.920;2024-01-30T00:06:06;2.90;58.00
60495;DHT22;46342;49.046;11.920;2024-01-30T00:08:32;2.90;58.00
60495;DHT22;46342;49.046;11.920;2024-01-30T00:10:58;2.90;58.00
60495;DHT22;46342;49.046;11.920;2024-01-30T00:13:23;2.90;58.00
60495;DHT22;46342;49.046;11.920;2024-01-30T00:15:49;2.90;58.00
60495;DHT22;46342;49.046;11.920;2024-01-30T00:18:15;2.90;58.10
60495;DHT22;46342;49.046;11.920;2024-01-30T00:20:40;2.90;58.10
60495;DHT22;46342;49.046;11.920;2024-01-30T00:23:06;2.90;58.10
60495;DHT22;46342;49.046;11.920;2024-01-30T00:25:31;2.90;58.10
60495;DHT22;46342;49.046;11.920;2024-01-30T00:27:58;2.90;58.60
60495;DHT22;46342;49.046;11.920;2024-01-30T00:30:24;2.90;58.00
60495;DHT22;46342;49.046;11.920;2024-01-30T00:32:50;2.90;58.00
60495;DHT22;46342;49.046;11.920;2024-01-30T00:35:15;2.90;58.00
60495;DHT22;46342;49.046;11.920;2024-01-30T00:37:41;2.90;58.10
60495;DHT22;46342;49.046;11.920;2024-01-30T00:40:07;2.80;58.00
60495;DHT22;46342;49.046;11.920;2024-01-30T00:42:33;2.80;58.00
60495;DHT22;46342;49.046;11.920;2024-01-30T00:44:58;2.80;58.00
60495;DHT22;46342;49.046;11.920;2024-01-30T00:47:24;2.80;58.00
60495;DHT22;46342;49.046;11.920;2024-01-30T00:49:50;2.80;58.00
60495;DHT22;46342;49.046;11.920;2024-01-30T00:52:15;2.80;58.00
60495;DHT22;46342;49.046;11.920;2024-01-30T00:54:41;2.80;57.90
60495;DHT22;46342;49.046;11.920;2024-01-30T00:57:07;2.80;57.90
60495;DHT22;46342;49.046;11.920;2024-01-30T00:59:32;2.70;57.90
60495;DHT22;46342;49.046;11.920;2024-01-30T01:01:58;2.70;57.90
60495;DHT22;46342;49.046;11.920;2024-01-30T01:04:24;2.70;57.90
60495;DHT22;46342;49.046;11.920;2024-01-30T01:06:51;2.70;57.90
60495;DHT22;46342;49.046;11.920;2024-01-30T01:09:16;2.70;58.00
60495;DHT22;46342;49.046;11.920;2024-01-30T01:11:42;2.60;57.90
60495;DHT22;46342;49.046;11.920;2024-01-30T01:14:08;2.60;57.90
60495;DHT22;46342;49.046;11.920;2024-01-30T01:16:33;2.60;57.90
60495;DHT22;46342;49.046;11.920;2024-01-30T01:18:59;2.60;57.90
60495;DHT22;46342;49.046;11.920;2024-01-30T01:21:25;2.60;57.90
60495;DHT22;46342;49.046;11.920;2024-01-30T01:23:51;2.60;58.00
60495;DHT22;46342;49.046;11.920;2024-01-30T01:26:16;2.50;57.90
60495;DHT22;46342;49.046;11.920;2024-01-30T01:28:42;2.50;57.90
60495;DHT22;46342;49.046;11.920;2024-01-30T01:31:08;2.50;57.90
60495;DHT22;46342;49.046;11.920;2024-01-30T01:33:33;2.50;58.00
60495;DHT22;46342;49.046;11.920;2024-01-30T01:36:00;2.50;57.90
60495;DHT22;46342;49.046;11.920;2024-01-30T01:38:28;2.50;58.00
60495;DHT22;46342;49.046;11.920;2024-01-30T01:40:53;2.40;57.90
60495;DHT22;46342;49.046;11.920;2024-01-30T01:43:19;2.40;57.90
60495;DHT22;46342;49.046;11.920;2024-01-30T01:45:45;2.40;57.90
60495;DHT22;46342;49.046;11.920;2024-01-30T01:48:11;2.40;57.90
60495;DHT22;46342;49.046;11.920;2024-01-30T01:50:38;2.40;57.90
60495;DHT22;46342;49.046;11.920;2024-01-30T01:53:05;2.30;57.90
60495;DHT22;46342;49.046;11.920;2024-01-30T01:55:32;2.30;57.90
60495;DHT22;46342;49.046;11.920;2024-01-30T01:57:58;2.30;57.90
60495;DHT22;46342;49.046;11.920;2024-01-30T02:00:24;2.30;57.90
60495;DHT22;46342;49.046;11.920;2024-01-30T02:02:50;2.30;57.90
60495;DHT22;46342;49.046;11.920;2024-01-30T02:05:16;2.30;58.00
60495;DHT22;46342;49.046;11.920;2024-01-30T02:07:42;2.20;57.90
60495;DHT22;46342;49.046;11.920;2024-01-30T02:10:09;2.20;58.00
60495;DHT22;46342;49.046;11.920;2024-01-30T02:12:37;2.20;58.00
60495;DHT22;46342;49.046;11.920;2024-01-30T02:15:04;2.20;58.00
60495;DHT22;46342;49.046;11.920;2024-01-30T02:17:30;2.20;58.00
60495;DHT22;46342;49.046;11.920;2024-01-30T02:19:56;2.20;58.00
60495;DHT22;46342;49.046;11.920;2024-01-30T02:22:22;2.10;57.90
60495;DHT22;46342;49.046;11.920;2024-01-30T02:24:48;2.10;57.90
60495;DHT22;46342;49.046;11.920;2024-01-30T02:27:14;2.10;57.90
60495;DHT22;46342;49.046;11.920;2024-01-30T02:29:39;2.10;57.90
60495;DHT22;46342;49.046;11.920;2024-01-30T02:32:05;2.10;57.90
60495;DHT22;46342;49.046;11.920;2024-01-30T02:34:31;2.10;58.00
60495;DHT22;46342;49.046;11.920;2024-01-30T02:36:57;2.00;57.90
60495;DHT22;46342;49.046;11.920;2024-01-30T02:39:23;2.00;57.90
60495;DHT22;46342;49.046;11.920;2024-01-30T02:41:48;2.00;57.90
60495;DHT22;46342;49.046;11.920;2024-01-30T02:44:14;2.00;57.90
60495;DHT22;46342;49.046;11.920;2024-01-30T02:46:39;2.00;57.90
60495;DHT22;46342;49.046;11.920;2024-01-30T02:49:05;2.00;57.90
60495;DHT22;46342;49.046;11.920;2024-01-30T02:51:30;2.00;57.90
60495;DHT22;46342;49.046;11.920;2024-01-30T02:53:56;2.00;57.90
60495;DHT22;46342;49.046;11.920;2024-01-30T02:56:22;1.90;57.90
60495;DHT22;46342;49.046;11.920;2024-01-30T02:58:47;1.90;58.00
60495;DHT22;46342;49.046;11.920;2024-01-30T03:01:13;1.90;58.00
60495;DHT22;46342;49.046;11.920;2024-01-30T03:03:38;1.90;58.00
60495;DHT22;46342;49.046;11.920;2024-01-30T03:06:06;1.90;58.10
60495;DHT22;46342;49.046;11.920;2024-01-30T03:08:32;1.90;58.10
60495;DHT22;46342;49.046;11.920;2024-01-30T03:10:58;1.80;58.00
60495;DHT22;46342;49.046;11.920;2024-01-30T03:13:23;1.80;58.00
60495;DHT22;46342;49.046;11.920;2024-01-30T03:15:50;1.80;58.00
60495;DHT22;46342;49.046;11.920;2024-01-30T03:18:16;1.80;58.10
60495;DHT22;46342;49.046;11.920;2024-01-30T03:20:41;1.80;58.10
60495;DHT22;46342;49.046;11.920;2024-01-30T03:23:07;1.70;58.00
60495;DHT22;46342;49.046;11.920;2024-01-30T03:25:32;1.70;58.00
60495;DHT22;46342;49.046;11.920;2024-01-30T03:27:58;1.70;58.00
60495;DHT22;46342;49.046;11.920;2024-01-30T03:30:23;1.70;58.10
60495;DHT22;46342;49.046;11.920;2024-01-30T03:32:49;1.70;58.10
60495;DHT22;46342;49.046;11.920;2024-01-30T03:35:15;1.70;58.10
60495;DHT22;46342;49.046;11.920;2024-01-30T03:37:41;1.60;58.10
60495;DHT22;46342;49.046;11.920;2024-01-30T03:40:07;1.60;58.10
60495;DHT22;46342;49.046;11.920;2024-01-30T03:42:33;1.60;58.10
60495;DHT22;46342;49.046;11.920;2024-01-30T03:44:58;1.60;58.10
60495;DHT22;46342;49.046;11.920;2024-01-30T03:47:24;1.60;58.20
60495;DHT22;46342;49.046;11.920;2024-01-30T03:49:49;1.60;58.20
60495;DHT22;46342;49.046;11.920;2024-01-30T03:52:15;1.60;58.30
60495;DHT22;46342;49.046;11.920;2024-01-30T03:54:40;1.50;58.30
60495;DHT22;46342;49.046;11.920;2024-01-30T03:57:06;1.50;58.30
60495;DHT22;46342;49.046;11.920;2024-01-30T03:59:32;1.50;58.30
60495;DHT22;46342;49.046;11.920;2024-01-30T04:01:57;1.50;58.30
60495;DHT22;46342;49.046;11.920;2024-01-30T04:04:23;1.50;58.30
60495;DHT22;46342;49.046;11.920;2024-01-30T04:06:48;1.50;58.30
60495;DHT22;46342;49.046;11.920;2024-01-30T04:09:14;1.50;58.30
60495;DHT22;46342;49.046;11.920;2024-01-30T04:11:40;1.50;58.30
60495;DHT22;46342;49.046;11.920;2024-01-30T04:14:05;1.50;58.30
60495;DHT22;46342;49.046;11.920;2024-01-30T04:16:31;1.50;58.30
60495;DHT22;46342;49.046;11.920;2024-01-30T04:18:57;1.50;58.30
60495;DHT22;46342;49.046;11.920;2024-01-30T04:21:23;1.50;58.30
60495;DHT22;46342;49.046;11.920;2024-01-30T04:23:48;1.50;58.30
60495;DHT22;46342;49.046;11.920;2024-01-30T04:26:14;1.50;58.30
60495;DHT22;46342;49.046;11.920;2024-01-30T04:28:45;1.50;58.40
60495;DHT22;46342;49.046;11.920;2024-01-30T04:31:11;1.50;58.60
60495;DHT22;46342;49.046;11.920;2024-01-30T04:33:36;1.50;58.60
60495;DHT22;46342;49.046;11.920;2024-01-30T04:36:03;1.50;58.60
60495;DHT22;46342;49.046;11.920;2024-01-30T04:38:29;1.50;58.70
60495;DHT22;46342;49.046;11.920;2024-01-30T04:40:54;1.50;58.80
60495;DHT22;46342;49.046;11.920;2024-01-30T04:43:20;1.50;58.90
60495;DHT22;46342;49.046;11.920;2024-01-30T04:45:45;1.50;58.90
60495;DHT22;46342;49.046;11.920;2024-01-30T04:48:11;1.50;59.10
60495;DHT22;46342;49.046;11.920;2024-01-30T04:50:37;1.50;59.10
60495;DHT22;46342;49.046;11.920;2024-01-30T04:53:02;1.50;59.10
60495;DHT22;46342;49.046;11.920;2024-01-30T04:55:28;1.60;59.30
60495;DHT22;46342;49.046;11.920;2024-01-30T04:57:53;1.60;59.30
60495;DHT22;46342;49.046;11.920;2024-01-30T05:00:19;1.60;59.30
60495;DHT22;46342;49.046;11.920;2024-01-30T05:02:45;1.60;59.30
60495;DHT22;46342;49.046;11.920;2024-01-30T05:05:10;1.60;59.30
60495;DHT22;46342;49.046;11.920;2024-01-30T05:07:36;1.60;59.80
60495;DHT22;46342;49.046;11.920;2024-01-30T05:10:02;1.60;59.30
60495;DHT22;46342;49.046;11.920;2024-01-30T05:12:28;1.60;59.20
60495;DHT22;46342;49.046;11.920;2024-01-30T05:14:54;1.70;59.20
60495;DHT22;46342;49.046;11.920;2024-01-30T05:17:20;1.70;59.10
60495;DHT22;46342;49.046;11.920;2024-01-30T05:19:45;1.70;59.00
60495;DHT22;46342;49.046;11.920;2024-01-30T05:22:11;1.60;58.90
60495;DHT22;46342;49.046;11.920;2024-01-30T05:24:43;1.60;59.00
60495;DHT22;46342;49.046;11.920;2024-01-30T05:27:09;1.60;59.10
60495;DHT22;46342;49.046;11.920;2024-01-30T05:29:34;1.60;59.10
60495;DHT22;46342;49.046;11.920;2024-01-30T05:32:00;1.60;59.80
60495;DHT22;46342;49.046;11.920;2024-01-30T05:34:25;1.60;59.30
60495;DHT22;46342;49.046;11.920;2024-01-30T05:36:51;1.60;59.40
60495;DHT22;46342;49.046;11.920;2024-01-30T05:39:16;1.60;59.40
60495;DHT22;46342;49.046;11.920;2024-01-30T05:41:42;1.70;60.00
60495;DHT22;46342;49.046;11.920;2024-01-30T05:44:07;1.70;59.30
60495;DHT22;46342;49.046;11.920;2024-01-30T05:46:34;1.70;59.20
60495;DHT22;46342;49.046;11.920;2024-01-30T05:49:00;1.60;59.00
60495;DHT22;46342;49.046;11.920;2024-01-30T05:51:26;1.60;59.00
60495;DHT22;46342;49.046;11.920;2024-01-30T05:53:51;1.60;58.90
60495;DHT22;46342;49.046;11.920;2024-01-30T05:56:17;1.60;58.90
60495;DHT22;46342;49.046;11.920;2024-01-30T05:58:42;1.60;58.80
60495;DHT22;46342;49.046;11.920;2024-01-30T06:01:08;1.60;58.80
60495;DHT22;46342;49.046;11.920;2024-01-30T06:03:34;1.60;58.80
60495;DHT22;46342;49.046;11.920;2024-01-30T06:06:00;1.50;58.70
60495;DHT22;46342;49.046;11.920;2024-01-30T06:08:26;1.50;58.70
60495;DHT22;46342;49.046;11.920;2024-01-30T06:10:51;1.50;58.70
60495;DHT22;46342;49.046;11.920;2024-01-30T06:13:17;1.50;58.70
60495;DHT22;46342;49.046;11.920;2024-01-30T06:15:43;1.50;58.70
60495;DHT22;46342;49.046;11.920;2024-01-30T06:18:09;1.40;58.70
60495;DHT22;46342;49.046;11.920;2024-01-30T06:20:34;1.40;58.70
60495;DHT22;46342;49.046;11.920;2024-01-30T06:23:00;1.40;58.80
60495;DHT22;46342;49.046;11.920;2024-01-30T06:25:26;1.40;58.80
60495;DHT22;46342;49.046;11.920;2024-01-30T06:27:51;1.40;58.90
60495;DHT22;46342;49.046;11.920;2024-01-30T06:30:17;1.30;58.90
60495;DHT22;46342;49.046;11.920;2024-01-30T06:32:43;1.30;59.00
60495;DHT22;46342;49.046;11.920;2024-01-30T06:35:08;1.40;59.10
60495;DHT22;46342;49.046;11.920;2024-01-30T06:37:36;1.30;59.00
60495;DHT22;46342;49.046;11.920;2024-01-30T06:40:01;1.40;59.10
60495;DHT22;46342;49.046;11.920;2024-01-30T06:42:27;1.30;59.10
60495;DHT22;46342;49.046;11.920;2024-01-30T06:44:52;1.30;59.00
60495;DHT22;46342;49.046;11.920;2024-01-30T06:47:18;1.40;59.10
60495;DHT22;46342;49.046;11.920;2024-01-30T06:49:43;1.40;59.10
60495;DHT22;46342;49.046;11.920;2024-01-30T06:52:10;1.40;59.20
60495;DHT22;46342;49.046;11.920;2024-01-30T06:54:36;1.40;59.20
60495;DHT22;46342;49.046;11.920;2024-01-30T06:57:02;1.40;59.30
60495;DHT22;46342;49.046;11.920;2024-01-30T06:59:28;1.40;59.40
60495;DHT22;46342;49.046;11.920;2024-01-30T07:01:53;1.40;59.40
60495;DHT22;46342;49.046;11.920;2024-01-30T07:04:19;1.40;59.40
60495;DHT22;46342;49.046;11.920;2024-01-30T07:06:45;1.40;59.40
60495;DHT22;46342;49.046;11.920;2024-01-30T07:09:11;1.40;59.30
60495;DHT22;46342;49.046;11.920;2024-01-30T07:11:37;1.40;59.30
60495;DHT22;46342;49.046;11.920;2024-01-30T07:14:03;1.40;59.40
60495;DHT22;46342;49.046;11.920;2024-01-30T07:16:31;1.40;59.40
60495;DHT22;46342;49.046;11.920;2024-01-30T07:18:57;1.40;60.00
60495;DHT22;46342;49.046;11.920;2024-01-30T07:21:22;1.40;59.20
60495;DHT22;46342;49.046;11.920;2024-01-30T07:23:56;1.40;59.10
60495;DHT22;46342;49.046;11.920;2024-01-30T07:26:21;1.40;59.10
60495;DHT22;46342;49.046;11.920;2024-01-30T07:28:47;1.40;59.10
60495;DHT22;46342;49.046;11.920;2024-01-30T07:31:13;1.40;59.20
60495;DHT22;46342;49.046;11.920;2024-01-30T07:33:38;1.40;59.20
60495;DHT22;46342;49.046;11.920;2024-01-30T07:36:04;1.40;59.30
60495;DHT22;46342;49.046;11.920;2024-01-30T07:38:32;1.40;59.40
60495;DHT22;46342;49.046;11.920;2024-01-30T07:40:58;1.40;59.50
60495;DHT22;46342;49.046;11.920;2024-01-30T07:43:24;1.40;59.50
60495;DHT22;46342;49.046;11.920;2024-01-30T07:45:50;1.40;59.60
60495;DHT22;46342;49.046;11.920;2024-01-30T07:48:15;1.40;59.70
60495;DHT22;46342;49.046;11.920;2024-01-30T07:50:41;1.40;59.80
60495;DHT22;46342;49.046;11.920;2024-01-30T07:53:07;1.50;59.90
60495;DHT22;46342;49.046;11.920;2024-01-30T07:55:32;1.50;59.90
60495;DHT22;46342;49.046;11.920;2024-01-30T07:57:58;1.50;59.90
60495;DHT22;46342;49.046;11.920;2024-01-30T08:00:27;1.50;60.00
60495;DHT22;46342;49.046;11.920;2024-01-30T08:02:54;1.60;60.20
60495;DHT22;46342;49.046;11.920;2024-01-30T08:05:21;1.60;60.30
60495;DHT22;46342;49.046;11.920;2024-01-30T08:07:48;1.70;61.40
60495;DHT22;46342;49.046;11.920;2024-01-30T08:10:14;1.70;60.50
60495;DHT22;46342;49.046;11.920;2024-01-30T08:12:40;1.70;60.60
60495;DHT22;46342;49.046;11.920;2024-01-30T08:15:06;1.80;60.80
60495;DHT22;46342;49.046;11.920;2024-01-30T08:17:33;1.80;60.90
60495;DHT22;46342;49.046;11.920;2024-01-30T08:19:58;1.90;61.00
60495;DHT22;46342;49.046;11.920;2024-01-30T08:22:24;1.90;61.10
60495;DHT22;46342;49.046;11.920;2024-01-30T08:24:50;2.00;61.20
60495;DHT22;46342;49.046;11.920;2024-01-30T08:27:15;2.00;61.30
60495;DHT22;46342;49.046;11.920;2024-01-30T08:29:41;2.10;61.40
60495;DHT22;46342;49.046;11.920;2024-01-30T08:32:06;2.10;61.40
60495;DHT22;46342;49.046;11.920;2024-01-30T08:34:32;2.20;61.60
60495;DHT22;46342;49.046;11.920;2024-01-30T08:36:58;2.20;61.60
60495;DHT22;46342;49.046;11.920;2024-01-30T08:39:24;2.30;61.70
60495;DHT22;46342;49.046;11.920;2024-01-30T08:41:49;2.30;61.80
60495;DHT22;46342;49.046;11.920;2024-01-30T08:44:15;2.40;61.80
60495;DHT22;46342;49.046;11.920;2024-01-30T08:46:41;2.40;61.80
60495;DHT22;46342;49.046;11.920;2024-01-30T08:49:07;2.50;61.90
60495;DHT22;46342;49.046;11.920;2024-01-30T08:51:33;2.50;61.90
60495;DHT22;46342;49.046;11.920;2024-01-30T08:53:59;2.60;62.10
60495;DHT22;46342;49.046;11.920;2024-01-30T08:56:25;2.60;62.00
60495;DHT22;46342;49.046;11.920;2024-01-30T08:58:51;2.70;62.00
60495;DHT22;46342;49.046;11.920;2024-01-30T09:01:16;2.80;62.20
60495;DHT22;46342;49.046;11.920;2024-01-30T09:03:42;2.80;62.30
60495;DHT22;46342;49.046;11.920;2024-01-30T09:06:10;2.90;62.30
60495;DHT22;46342;49.046;11.920;2024-01-30T09:08:36;2.90;62.40
60495;DHT22;46342;49.046;11.920;2024-01-30T09:11:09;3.00;63.30
60495;DHT22;46342;49.046;11.920;2024-01-30T09:13:35;3.00;62.90
60495;DHT22;46342;49.046;11.920;2024-01-30T09:16:00;3.10;62.40
60495;DHT22;46342;49.046;11.920;2024-01-30T09:18:26;3.20;62.50
60495;DHT22;46342;49.046;11.920;2024-01-30T09:20:51;3.20;62.60
60495;DHT22;46342;49.046;11.920;2024-01-30T09:23:17;3.30;62.60
60495;DHT22;46342;49.046;11.920;2024-01-30T09:25:45;3.30;62.70
60495;DHT22;46342;49.046;11.920;2024-01-30T09:28:10;3.40;62.80
60495;DHT22;46342;49.046;11.920;2024-01-30T09:30:36;3.40;62.70
60495;DHT22;46342;49.046;11.920;2024-01-30T09:33:01;3.50;62.90
60495;DHT22;46342;49.046;11.920;2024-01-30T09:35:27;3.60;62.90
60495;DHT22;46342;49.046;11.920;2024-01-30T09:37:52;3.60;62.90
60495;DHT22;46342;49.046;11.920;2024-01-30T09:40:18;3.70;63.00
60495;DHT22;46342;49.046;11.920;2024-01-30T09:42:47;3.70;63.00
60495;DHT22;46342;49.046;11.920;2024-01-30T09:45:14;3.80;63.30
60495;DHT22;46342;49.046;11.920;2024-01-30T09:47:42;3.90;63.00
60495;DHT22;46342;49.046;11.920;2024-01-30T09:50:09;4.00;63.20
60495;DHT22;46342;49.046;11.920;2024-01-30T09:52:35;4.00;63.10
60495;DHT22;46342;49.046;11.920;2024-01-30T09:55:01;4.10;63.10
60495;DHT22;46342;49.046;11.920;2024-01-30T09:57:27;4.10;63.10
60495;DHT22;46342;49.046;11.920;2024-01-30T09:59:52;4.20;63.20
60495;DHT22;46342;49.046;11.920;2024-01-30T10:02:19;4.30;63.20
60495;DHT22;46342;49.046;11.920;2024-01-30T10:04:48;4.30;63.10
60495;DHT22;46342;49.046;11.920;2024-01-30T10:07:14;4.40;63.30
60495;DHT22;46342;49.046;11.920;2024-01-30T10:09:40;4.50;63.20
60495;DHT22;46342;49.046;11.920;2024-01-30T10:12:06;4.50;63.10
60495;DHT22;46342;49.046;11.920;2024-01-30T10:14:31;4.60;63.10
60495;DHT22;46342;49.046;11.920;2024-01-30T10:16:57;4.60;63.00
60495;DHT22;46342;49.046;11.920;2024-01-30T10:19:23;4.70;63.00
60495;DHT22;46342;49.046;11.920;2024-01-30T10:21:49;4.80;63.10
60495;DHT22;46342;49.046;11.920;2024-01-30T10:24:14;4.80;63.10
60495;DHT22;46342;49.046;11.920;2024-01-30T10:26:40;4.90;63.00
60495;DHT22;46342;49.046;11.920;2024-01-30T10:29:08;5.00;63.00
60495;DHT22;46342;49.046;11.920;2024-01-30T10:31:34;5.00;62.90
60495;DHT22;46342;49.046;11.920;2024-01-30T10:34:00;5.10;63.10
60495;DHT22;46342;49.046;11.920;2024-01-30T10:36:28;5.20;63.10
60495;DHT22;46342;49.046;11.920;2024-01-30T10:38:55;5.20;63.20
60495;DHT22;46342;49.046;11.920;2024-01-30T10:41:26;5.30;63.10
60495;DHT22;46342;49.046;11.920;2024-01-30T10:44:02;5.40;63.10
60495;DHT22;46342;49.046;11.920;2024-01-30T10:46:31;5.40;63.20
60495;DHT22;46342;49.046;11.920;2024-01-30T10:48:58;5.50;63.10
60495;DHT22;46342;49.046;11.920;2024-01-30T10:51:26;5.60;63.20
60495;DHT22;46342;49.046;11.920;2024-01-30T10:53:52;5.70;63.30
60495;DHT22;46342;49.046;11.920;2024-01-30T10:56:21;5.70;63.10
60495;DHT22;46342;49.046;11.920;2024-01-30T10:58:52;5.80;64.00
60495;DHT22;46342;49.046;11.920;2024-01-30T11:01:21;5.90;63.10
60495;DHT22;46342;49.046;11.920;2024-01-30T11:03:54;5.90;63.10
60495;DHT22;46342;49.046;11.920;2024-01-30T11:06:24;6.00;63.00
60495;DHT22;46342;49.046;11.920;2024-01-30T11:09:09;6.10;63.00
60495;DHT22;46342;49.046;11.920;2024-01-30T11:11:55;6.20;63.00
60495;DHT22;46342;49.046;11.920;2024-01-30T11:14:31;6.30;63.00
60495;DHT22;46342;49.046;11.920;2024-01-30T11:16:58;6.40;63.00
60495;DHT22;46342;49.046;11.920;2024-01-30T11:19:30;6.50;63.00
60495;DHT22;46342;49.046;11.920;2024-01-30T11:21:56;6.50;62.80
60495;DHT22;46342;49.046;11.920;2024-01-30T11:24:23;6.60;62.80
60495;DHT22;46342;49.046;11.920;2024-01-30T11:26:49;6.60;62.70
60495;DHT22;46342;49.046;11.920;2024-01-30T11:29:19;6.70;62.70
60495;DHT22;46342;49.046;11.920;2024-01-30T11:31:57;6.80;63.60
60495;DHT22;46342;49.046;11.920;2024-01-30T11:34:23;6.90;62.60
60495;DHT22;46342;49.046;11.920;2024-01-30T11:37:03;7.00;62.80
60495;DHT22;46342;49.046;11.920;2024-01-30T11:39:32;7.10;62.60
60495;DHT22;46342;49.046;11.920;2024-01-30T11:41:59;7.20;62.80
60495;DHT22;46342;49.046;11.920;2024-01-30T11:44:24;7.30;62.90
60495;DHT22;46342;49.046;11.920;2024-01-30T11:46:51;7.40;63.00
60495;DHT22;46342;49.046;11.920;2024-01-30T11:49:17;7.50;63.80
60495;DHT22;46342;49.046;11.920;2024-01-30T11:51:45;7.50;62.90
60495;DHT22;46342;49.046;11.920;2024-01-30T11:54:11;7.60;62.80
60495;DHT22;46342;49.046;11.920;2024-01-30T11:56:37;7.80;62.80
60495;DHT22;46342;49.046;11.920;2024-01-30T11:59:04;7.90;62.80
60495;DHT22;46342;49.046;11.920;2024-01-30T12:01:31;8.00;62.90
60495;DHT22;46342;49.046;11.920;2024-01-30T12:03:57;8.10;62.90
60495;DHT22;46342;49.046;11.920;2024-01-30T12:06:23;8.20;62.80
60495;DHT22;46342;49.046;11.920;2024-01-30T12:09:02;8.30;62.30
60495;DHT22;46342;49.046;11.920;2024-01-30T12:11:43;8.40;61.70
60495;DHT22;46342;49.046;11.920;2024-01-30T12:14:09;8.50;61.70
60495;DHT22;46342;49.046;11.920;2024-01-30T12:16:35;8.60;61.90
60495;DHT22;46342;49.046;11.920;2024-01-30T12:19:01;8.70;62.80
60495;DHT22;46342;49.046;11.920;2024-01-30T12:21:28;8.70;61.60
60495;DHT22;46342;49.046;11.920;2024-01-30T12:23:54;8.80;61.50
60495;DHT22;46342;49.046;11.920;2024-01-30T12:26:19;8.90;61.30
60495;DHT22;46342;49.046;11.920;2024-01-30T12:28:49;8.90;61.20
60495;DHT22;46342;49.046;11.920;2024-01-30T12:31:15;9.00;60.70
60495;DHT22;46342;49.046;11.920;2024-01-30T12:33:41;9.10;60.90
60495;DHT22;46342;49.046;11.920;2024-01-30T12:36:07;9.10;61.00
60495;DHT22;46342;49.046;11.920;2024-01-30T12:38:32;9.20;60.90
60495;DHT22;46342;49.046;11.920;2024-01-30T12:40:58;9.30;60.80
60495;DHT22;46342;49.046;11.920;2024-01-30T12:43:25;9.40;60.60
60495;DHT22;46342;49.046;11.920;2024-01-30T12:45:51;9.40;60.20
60495;DHT22;46342;49.046;11.920;2024-01-30T12:48:17;9.50;60.20
60495;DHT22;46342;49.046;11.920;2024-01-30T12:50:43;9.50;59.90
60495;DHT22;46342;49.046;11.920;2024-01-30T12:53:08;9.60;59.70
60495;DHT22;46342;49.046;11.920;2024-01-30T12:55:34;9.60;59.50
60495;DHT22;46342;49.046;11.920;2024-01-30T12:58:00;9.60;59.40
60495;DHT22;46342;49.046;11.920;2024-01-30T13:00:26;9.60;59.30
60495;DHT22;46342;49.046;11.920;2024-01-30T13:02:52;9.70;59.30
60495;DHT22;46342;49.046;11.920;2024-01-30T13:05:18;9.70;59.20
60495;DHT22;46342;49.046;11.920;2024-01-30T13:07:43;9.70;59.10
60495;DHT22;46342;49.046;11.920;2024-01-30T13:10:09;9.70;58.90
60495;DHT22;46342;49.046;11.920;2024-01-30T13:12:35;9.70;58.70
60495;DHT22;46342;49.046;11.920;2024-01-30T13:15:01;9.70;58.60
60495;DHT22;46342;49.046;11.920;2024-01-30T13:17:27;9.70;58.60
60495;DHT22;46342;49.046;11.920;2024-01-30T13:19:53;9.70;58.60
60495;DHT22;46342;49.046;11.920;2024-01-30T13:22:19;9.70;58.60
60495;DHT22;46342;49.046;11.920;2024-01-30T13:24:47;9.60;58.50
60495;DHT22;46342;49.046;11.920;2024-01-30T13:27:12;9.60;58.40
60495;DHT22;46342;49.046;11.920;2024-01-30T13:29:38;9.60;58.40
60495;DHT22;46342;49.046;11.920;2024-01-30T13:32:04;9.70;58.40
60495;DHT22;46342;49.046;11.920;2024-01-30T13:34:30;9.60;58.40
60495;DHT22;46342;49.046;11.920;2024-01-30T13:36:55;9.60;58.30
60495;DHT22;46342;49.046;11.920;2024-01-30T13:39:21;9.60;58.30
60495;DHT22;46342;49.046;11.920;2024-01-30T13:41:47;9.70;58.30
60495;DHT22;46342;49.046;11.920;2024-01-30T13:44:14;9.50;58.10
60495;DHT22;46342;49.046;11.920;2024-01-30T13:46:41;9.60;58.20
60495;DHT22;46342;49.046;11.920;2024-01-30T13:49:07;9.60;58.10
60495;DHT22;46342;49.046;11.920;2024-01-30T13:51:32;9.60;58.20
60495;DHT22;46342;49.046;11.920;2024-01-30T13:53:58;9.60;58.20
60495;DHT22;46342;49.046;11.920;2024-01-30T13:56:23;9.50;58.10
60495;DHT22;46342;49.046;11.920;2024-01-30T13:58:50;9.50;58.20
60495;DHT22;46342;49.046;11.920;2024-01-30T14:01:16;9.50;58.20
60495;DHT22;46342;49.046;11.920;2024-01-30T14:03:42;9.50;58.10
60495;DHT22;46342;49.046;11.920;2024-01-30T14:06:07;9.60;58.20
60495;DHT22;46342;49.046;11.920;2024-01-30T14:08:33;9.50;58.10
60495;DHT22;46342;49.046;11.920;2024-01-30T14:10:59;9.50;58.10
60495;DHT22;46342;49.046;11.920;2024-01-30T14:13:24;9.60;58.70
60495;DHT22;46342;49.046;11.920;2024-01-30T14:15:51;9.50;58.00
60495;DHT22;46342;49.046;11.920;2024-01-30T14:18:17;9.60;58.10
60495;DHT22;46342;49.046;11.920;2024-01-30T14:20:43;9.50;57.90
60495;DHT22;46342;49.046;11.920;2024-01-30T14:23:09;9.50;57.90
60495;DHT22;46342;49.046;11.920;2024-01-30T14:25:34;9.50;57.90
60495;DHT22;46342;49.046;11.920;2024-01-30T14:28:00;9.50;57.90
60495;DHT22;46342;49.046;11.920;2024-01-30T14:30:26;9.50;57.90
60495;DHT22;46342;49.046;11.920;2024-01-30T14:32:51;9.50;57.80
60495;DHT22;46342;49.046;11.920;2024-01-30T14:35:17;9.40;57.70
60495;DHT22;46342;49.046;11.920;2024-01-30T14:37:42;9.40;57.80
60495;DHT22;46342;49.046;11.920;2024-01-30T14:40:08;9.40;57.90
60495;DHT22;46342;49.046;11.920;2024-01-30T14:42:34;9.40;57.90
60495;DHT22;46342;49.046;11.920;2024-01-30T14:45:06;9.40;57.90
60495;DHT22;46342;49.046;11.920;2024-01-30T14:47:32;9.40;57.80
60495;DHT22;46342;49.046;11.920;2024-01-30T14:49:58;9.40;57.90
60495;DHT22;46342;49.046;11.920;2024-01-30T14:52:24;9.30;57.70
60495;DHT22;46342;49.046;11.920;2024-01-30T14:54:49;9.30;57.70
60495;DHT22;46342;49.046;11.920;2024-01-30T14:57:15;9.30;57.70
60495;DHT22;46342;49.046;11.920;2024-01-30T14:59:41;9.30;57.70
60495;DHT22;46342;49.046;11.920;2024-01-30T15:02:07;9.20;57.60
60495;DHT22;46342;49.046;11.920;2024-01-30T15:04:33;9.20;57.60
60495;DHT22;46342;49.046;11.920;2024-01-30T15:06:58;9.20;57.60
60495;DHT22;46342;49.046;11.920;2024-01-30T15:09:24;9.20;57.60
60495;DHT22;46342;49.046;11.920;2024-01-30T15:11:51;9.10;57.50
60495;DHT22;46342;49.046;11.920;2024-01-30T15:14:17;9.10;57.50
60495;DHT22;46342;49.046;11.920;2024-01-30T15:16:43;9.10;57.50
60495;DHT22;46342;49.046;11.920;2024-01-30T15:19:09;9.00;57.50
60495;DHT22;46342;49.046;11.920;2024-01-30T15:21:34;9.00;57.50
60495;DHT22;46342;49.046;11.920;2024-01-30T15:24:00;9.00;57.50